If you wish to contribute or participate in the discussions about articles you are invited to join SKYbrary as a registered user

 Actions

Southampton Airport

From SKYbrary Wiki

EGHI
Airport
ICAO: EGHI – IATA: SOU
Summary
Name Southampton Airport
Region Europe
Territory United Kingdom GB.gif
Location Eastleigh,Southampton, England.
Serving Southampton
Elevation 13.411 m
44 ft
44 ft13.411 m
Coordinates 50° 56' 59.32" N, 1° 21' 23.39" W
Runways
Designator Length Width Surface ROPS
2/20 1723 m5,652.887 ft
37 m121.391 ft
ASP yes/yes


METAR
Observation EGHI 201950Z 00000KT CAVOK 15/06 Q1027
Station Southampton / Weather Centre
Date/Time 20 April 2019 19:50:00
Wind direction
Wind speed 00 kts
Lowest cloud amount clouds and visibility OK
Temperature 15°C
Dew point 6°C
Humidity 54%
QNH 1027 hPa
Weather condition n/a

Southampton Airport

ICAO: EGHI IATA: SOU

Description

Small domestic and international airport serving the city of Southampton and environs; has co-located railway station.

Climatology

Temperate Marine climate/Oceanic climate (Köppen climate classification Cfb). Moderately cool summer and comparatively warm winter with a temperature range of only 14°C57.2 °F
287.15 K
516.87 °R
. Prevailing south-westerly winds from the Atlantic Ocean.

Maps

Terrain

Loading map...

Airport Layout

Loading map...